createdAt,value
2024-03-16T00:00:25.882Z,1.30
2024-03-16T00:01:27.767Z,1.40
2024-03-16T00:02:29.674Z,1.30
2024-03-16T00:03:32.973Z,1.42
2024-03-16T00:04:34.669Z,1.23
2024-03-16T00:05:39.181Z,1.33
2024-03-16T00:06:41.072Z,1.17
2024-03-16T00:07:42.650Z,1.33
2024-03-16T00:08:44.768Z,1.40
2024-03-16T00:09:46.434Z,1.50
2024-03-16T00:10:48.117Z,1.02
2024-03-16T00:11:49.785Z,1.50
2024-03-16T00:12:51.472Z,1.55
2024-03-16T00:13:53.957Z,1.27
2024-03-16T00:14:56.928Z,0.90
2024-03-16T00:15:59.683Z,1.13
2024-03-16T00:17:03.466Z,1.17
2024-03-16T00:18:05.293Z,1.10
2024-03-16T00:19:07.186Z,1.20
2024-03-16T00:20:11.763Z,0.68
2024-03-16T00:21:13.368Z,0.82
2024-03-16T00:22:16.392Z,1.08
2024-03-16T00:23:20.357Z,0.73
2024-03-16T00:24:22.029Z,1.13
2024-03-16T00:25:23.654Z,0.70
2024-03-16T00:26:25.381Z,1.05
2024-03-16T00:27:27.277Z,0.93
2024-03-16T00:28:29.047Z,0.60
2024-03-16T00:29:31.394Z,0.88
2024-03-16T00:30:34.042Z,1.05
2024-03-16T00:31:36.146Z,1.10
2024-03-16T00:32:39.584Z,1.02
2024-03-16T00:33:41.306Z,0.70
2024-03-16T00:34:43.535Z,0.70
2024-03-16T00:35:45.415Z,0.77
2024-03-16T00:36:47.150Z,0.73
2024-03-16T00:37:49.238Z,0.60
2024-03-16T00:38:51.931Z,0.80
2024-03-16T00:39:53.735Z,0.40
2024-03-16T00:40:55.412Z,0.60
2024-03-16T00:41:59.829Z,0.75
2024-03-16T00:43:01.628Z,0.80
2024-03-16T00:44:03.333Z,0.80
2024-03-16T00:45:05.492Z,0.47
2024-03-16T00:46:07.349Z,0.57
2024-03-16T00:47:10.579Z,0.65
2024-03-16T00:48:13.616Z,0.77
2024-03-16T00:49:15.344Z,0.70
2024-03-16T00:50:17.005Z,0.60
2024-03-16T00:51:19.279Z,0.50
2024-03-16T00:52:20.923Z,0.47
2024-03-16T00:53:22.533Z,0.57
2024-03-16T00:54:24.586Z,0.55
2024-03-16T00:55:26.193Z,0.63
2024-03-16T00:56:28.206Z,0.45
2024-03-16T00:57:29.915Z,0.80
2024-03-16T00:58:31.664Z,0.30
2024-03-16T00:59:33.396Z,0.52
2024-03-16T01:00:35.097Z,0.30
2024-03-16T01:01:36.965Z,0.60
2024-03-16T01:02:39.389Z,0.52
2024-03-16T01:03:41.040Z,0.55
2024-03-16T01:04:42.645Z,0.43
2024-03-16T01:05:44.983Z,0.77
2024-03-16T01:06:46.736Z,0.50
2024-03-16T01:07:48.380Z,0.30
2024-03-16T01:08:49.989Z,0.50
2024-03-16T01:09:51.692Z,0.32
2024-03-16T01:10:55.661Z,0.73
2024-03-16T01:11:57.533Z,0.50
2024-03-16T01:12:59.149Z,0.82
2024-03-16T01:14:00.965Z,0.52
2024-03-16T01:15:02.573Z,0.55
2024-03-16T01:16:05.018Z,0.20
2024-03-16T01:17:06.724Z,0.52
2024-03-16T01:18:08.385Z,0.70
2024-03-16T01:19:10.080Z,1.00
2024-03-16T01:20:11.782Z,0.68
2024-03-16T01:21:13.464Z,0.60
2024-03-16T01:22:15.256Z,0.52
2024-03-16T01:23:18.494Z,0.65
2024-03-16T01:24:20.108Z,0.40
2024-03-16T01:25:21.773Z,0.80
2024-03-16T01:26:23.828Z,0.32
2024-03-16T01:27:25.492Z,0.50
2024-03-16T01:28:27.375Z,0.50
2024-03-16T01:29:28.934Z,0.40
2024-03-16T01:30:30.569Z,0.52
2024-03-16T01:31:32.893Z,0.40
2024-03-16T01:32:34.580Z,0.80
2024-03-16T01:33:36.256Z,0.50
2024-03-16T01:34:37.875Z,0.88
2024-03-16T01:35:39.560Z,0.57
2024-03-16T01:36:41.214Z,0.73
2024-03-16T01:37:42.933Z,0.60
2024-03-16T01:38:45.158Z,0.45
2024-03-16T01:39:46.960Z,0.85
2024-03-16T01:40:48.683Z,0.40
2024-03-16T01:41:50.312Z,0.40
2024-03-16T01:42:54.802Z,0.50
2024-03-16T01:44:10.919Z,0.45
2024-03-16T01:45:15.841Z,0.43
2024-03-16T01:46:18.151Z,0.65
2024-03-16T01:47:19.880Z,0.47
2024-03-16T01:48:21.468Z,0.52
2024-03-16T01:49:23.130Z,0.20
2024-03-16T01:50:24.761Z,0.70
2024-03-16T01:51:26.403Z,0.40
2024-03-16T01:52:29.159Z,0.20
2024-03-16T01:53:31.329Z,0.40
2024-03-16T01:54:33.064Z,0.50
2024-03-16T01:55:35.014Z,0.70
2024-03-16T01:56:36.608Z,0.40
2024-03-16T01:57:38.913Z,0.57
2024-03-16T01:58:44.404Z,0.40
2024-03-16T01:59:46.126Z,0.35
2024-03-16T02:00:49.056Z,0.20
2024-03-16T02:01:51.109Z,0.50
2024-03-16T02:02:52.869Z,0.28
2024-03-16T02:03:55.432Z,0.85
2024-03-16T02:04:57.048Z,0.47
2024-03-16T02:05:58.759Z,0.80
2024-03-16T02:07:08.124Z,0.55
2024-03-16T02:08:10.123Z,0.52
2024-03-16T02:09:11.757Z,0.60
2024-03-16T02:10:14.039Z,0.20
2024-03-16T02:11:15.777Z,0.35
2024-03-16T02:12:17.562Z,0.30
2024-03-16T02:13:19.513Z,0.40
2024-03-16T02:14:21.158Z,0.50
2024-03-16T02:15:23.430Z,0.25
2024-03-16T02:16:25.067Z,0.40
2024-03-16T02:17:26.796Z,0.65
2024-03-16T02:18:28.460Z,0.30
2024-03-16T02:19:30.021Z,0.40
2024-03-16T02:20:32.668Z,0.60
2024-03-16T02:21:37.068Z,0.70
2024-03-16T02:22:38.699Z,0.40
2024-03-16T02:23:40.900Z,0.40
2024-03-16T02:24:43.698Z,0.32
2024-03-16T02:25:46.043Z,0.50
2024-03-16T02:26:47.774Z,0.32
2024-03-16T02:27:49.378Z,0.30
2024-03-16T02:28:51.031Z,0.08
2024-03-16T02:29:52.625Z,0.45
2024-03-16T02:30:54.420Z,0.15
2024-03-16T02:31:56.382Z,0.10
2024-03-16T02:32:58.029Z,0.28
2024-03-16T02:33:59.900Z,0.32
2024-03-16T02:35:02.036Z,0.60
2024-03-16T02:36:05.030Z,0.13
2024-03-16T02:37:07.403Z,0.43
2024-03-16T02:38:10.257Z,0.32
2024-03-16T02:39:12.318Z,0.30
2024-03-16T02:40:14.542Z,0.35
2024-03-16T02:41:16.227Z,0.20
2024-03-16T02:42:17.965Z,0.28
2024-03-16T02:43:19.768Z,0.40
2024-03-16T02:44:21.396Z,0.15
2024-03-16T02:45:23.215Z,0.28
2024-03-16T02:46:24.916Z,0.50
2024-03-16T02:47:26.550Z,0.40
2024-03-16T02:48:28.340Z,0.47
2024-03-16T02:49:29.956Z,0.10
2024-03-16T02:50:31.554Z,0.50
2024-03-16T02:51:33.104Z,0.25
2024-03-16T02:52:34.745Z,0.10
2024-03-16T02:53:36.481Z,0.30
2024-03-16T02:54:38.136Z,0.25
2024-03-16T02:55:40.265Z,0.38
2024-03-16T02:56:42.452Z,0.22
2024-03-16T02:57:45.002Z,0.25
2024-03-16T02:58:51.089Z,0.30
2024-03-16T02:59:52.741Z,0.20
2024-03-16T03:00:54.398Z,0.20
2024-03-16T03:01:57.731Z,0.17
2024-03-16T03:02:59.349Z,0.30
2024-03-16T03:04:00.980Z,0.30
2024-03-16T03:05:02.695Z,0.10
2024-03-16T03:06:04.846Z,0.00
2024-03-16T03:07:06.720Z,0.10
2024-03-16T03:08:08.479Z,0.20
2024-03-16T03:09:10.358Z,0.20
2024-03-16T03:10:13.454Z,0.00
2024-03-16T03:11:15.658Z,0.10
2024-03-16T03:12:17.381Z,0.00
2024-03-16T03:13:19.058Z,0.40
2024-03-16T03:14:20.709Z,0.15
2024-03-16T03:15:23.028Z,0.43
2024-03-16T03:16:25.186Z,0.00
2024-03-16T03:17:26.896Z,0.10
2024-03-16T03:18:28.558Z,0.10
2024-03-16T03:19:30.224Z,0.30
2024-03-16T03:20:31.963Z,0.00
2024-03-16T03:21:33.599Z,0.13
2024-03-16T03:22:35.483Z,0.13
2024-03-16T03:23:37.344Z,0.20
2024-03-16T03:24:39.061Z,0.17
2024-03-16T03:25:40.802Z,0.10
2024-03-16T03:26:42.401Z,0.40
2024-03-16T03:27:44.083Z,0.22
2024-03-16T03:28:45.750Z,0.20
2024-03-16T03:29:47.502Z,0.30
2024-03-16T03:30:50.527Z,0.28
2024-03-16T03:31:52.262Z,0.15
2024-03-16T03:32:53.927Z,0.22
2024-03-16T03:33:55.595Z,0.20
2024-03-16T03:34:57.277Z,0.00
2024-03-16T03:35:59.059Z,0.35
2024-03-16T03:37:00.745Z,0.30
2024-03-16T03:38:05.377Z,0.17
2024-03-16T03:39:07.027Z,0.25
2024-03-16T03:40:09.255Z,0.50
2024-03-16T03:41:10.979Z,0.08
2024-03-16T03:42:12.770Z,0.15
2024-03-16T03:43:22.807Z,0.30
2024-03-16T03:44:36.975Z,0.35
2024-03-16T03:45:44.711Z,0.28
2024-03-16T03:46:52.920Z,0.10
2024-03-16T03:48:05.659Z,0.10
2024-03-16T03:49:15.763Z,0.00
2024-03-16T03:50:27.792Z,0.28
2024-03-16T03:51:29.638Z,0.10
2024-03-16T03:52:31.257Z,0.22
2024-03-16T03:53:32.877Z,0.30
2024-03-16T03:54:35.948Z,0.30
2024-03-16T03:55:37.897Z,0.20
2024-03-16T03:56:39.612Z,0.40
2024-03-16T03:57:41.286Z,0.25
2024-03-16T03:58:42.964Z,0.10
2024-03-16T03:59:44.579Z,0.10
2024-03-16T04:00:46.980Z,0.20
2024-03-16T04:01:48.708Z,0.00
2024-03-16T04:02:50.628Z,0.43
2024-03-16T04:03:52.280Z,0.10
2024-03-16T04:04:53.867Z,0.10
2024-03-16T04:05:55.548Z,0.45
2024-03-16T04:06:57.203Z,0.20
2024-03-16T04:07:58.901Z,0.13
2024-03-16T04:09:00.580Z,0.15
2024-03-16T04:10:02.284Z,0.00
2024-03-16T04:11:06.820Z,0.30
2024-03-16T04:12:10.485Z,0.15
2024-03-16T04:13:12.946Z,0.20
2024-03-16T04:15:16.370Z,0.40
2024-03-16T04:16:17.993Z,0.30
2024-03-16T04:17:19.934Z,0.15
2024-03-16T04:18:21.557Z,0.22
2024-03-16T04:19:23.234Z,0.20
2024-03-16T04:20:24.879Z,0.30
2024-03-16T04:21:26.570Z,0.10
2024-03-16T04:22:28.257Z,0.43
2024-03-16T04:23:29.846Z,0.28
2024-03-16T04:24:31.465Z,0.10
2024-03-16T04:25:33.161Z,0.10
2024-03-16T04:26:35.070Z,0.00
2024-03-16T04:27:37.206Z,0.10
2024-03-16T04:28:38.819Z,0.00
2024-03-16T04:29:40.437Z,0.15
2024-03-16T04:30:42.108Z,0.20
2024-03-16T04:31:43.711Z,0.10
2024-03-16T04:32:45.994Z,0.08
2024-03-16T04:33:47.690Z,0.05
2024-03-16T04:34:49.406Z,0.10
2024-03-16T04:35:50.958Z,0.17
2024-03-16T04:36:52.891Z,0.03
2024-03-16T04:37:55.321Z,0.10
2024-03-16T04:38:56.901Z,0.20
2024-03-16T04:39:59.530Z,0.05
2024-03-16T04:41:01.227Z,0.20
2024-03-16T04:42:02.818Z,0.10
2024-03-16T04:43:04.514Z,0.10
2024-03-16T04:44:06.142Z,0.00
2024-03-16T04:45:08.815Z,0.05
2024-03-16T04:46:10.490Z,0.25
2024-03-16T04:47:12.176Z,0.03
2024-03-16T04:48:13.861Z,0.10
2024-03-16T04:49:15.629Z,0.13
2024-03-16T04:50:17.284Z,0.35
2024-03-16T04:51:18.918Z,0.20
2024-03-16T04:52:20.629Z,0.10
2024-03-16T04:53:22.287Z,0.32
2024-03-16T04:54:24.452Z,0.00
2024-03-16T04:55:26.107Z,0.13
2024-03-16T04:56:28.391Z,0.28
2024-03-16T04:57:30.206Z,0.17
2024-03-16T04:58:31.842Z,0.28
2024-03-16T04:59:33.476Z,0.08
2024-03-16T05:00:36.268Z,0.17
2024-03-16T05:01:38.462Z,0.22
2024-03-16T05:02:40.208Z,0.10
2024-03-16T05:03:42.018Z,0.00
2024-03-16T05:04:43.645Z,0.25
2024-03-16T05:05:45.387Z,0.10
2024-03-16T05:06:47.058Z,0.20
2024-03-16T05:07:48.714Z,0.10
2024-03-16T05:08:50.406Z,0.10
2024-03-16T05:09:52.189Z,0.40
2024-03-16T05:10:53.968Z,0.10
2024-03-16T05:11:56.041Z,0.20
2024-03-16T05:12:57.777Z,0.10
2024-03-16T05:14:00.726Z,0.35
2024-03-16T05:15:02.367Z,0.30
2024-03-16T05:16:10.328Z,0.30
2024-03-16T05:17:12.003Z,0.40
2024-03-16T05:18:15.498Z,0.05
2024-03-16T05:19:17.470Z,0.50
2024-03-16T05:20:20.116Z,0.13
2024-03-16T05:21:22.922Z,0.10
2024-03-16T05:22:24.640Z,0.20
2024-03-16T05:23:26.285Z,0.43
2024-03-16T05:24:28.849Z,0.20
2024-03-16T05:25:30.516Z,0.05
2024-03-16T05:26:32.767Z,0.17
2024-03-16T05:27:36.568Z,0.20
2024-03-16T05:28:40.066Z,0.20
2024-03-16T05:29:41.751Z,0.13
2024-03-16T05:30:46.364Z,0.55
2024-03-16T05:31:58.880Z,0.15
2024-03-16T05:33:00.594Z,0.40
2024-03-16T05:34:02.432Z,0.20
2024-03-16T05:35:05.444Z,0.20
2024-03-16T05:36:07.293Z,0.20
2024-03-16T05:37:09.021Z,0.30
2024-03-16T05:38:10.734Z,0.20
2024-03-16T05:39:12.279Z,0.10
2024-03-16T05:40:13.899Z,0.40
2024-03-16T05:41:16.179Z,0.20
2024-03-16T05:42:17.912Z,0.40
2024-03-16T05:43:19.624Z,0.20
2024-03-16T05:44:21.172Z,0.32
2024-03-16T05:45:22.829Z,0.15
2024-03-16T05:46:24.413Z,0.20
2024-03-16T05:47:26.149Z,0.35
2024-03-16T05:48:28.596Z,0.15
2024-03-16T05:50:31.722Z,0.05
2024-03-16T05:51:33.366Z,0.13
2024-03-16T05:52:36.548Z,0.13
2024-03-16T05:53:38.246Z,0.13
2024-03-16T05:54:39.928Z,0.20
2024-03-16T05:55:41.819Z,0.30
2024-03-16T05:56:43.366Z,0.28
2024-03-16T05:57:44.978Z,0.13
2024-03-16T05:58:47.310Z,0.13
2024-03-16T05:59:52.965Z,0.15
2024-03-16T06:00:55.031Z,0.00
2024-03-16T06:01:56.925Z,0.10
2024-03-16T06:02:58.623Z,0.25
2024-03-16T06:04:00.195Z,0.00
2024-03-16T06:05:01.742Z,0.10
2024-03-16T06:06:03.517Z,0.17
2024-03-16T06:07:05.240Z,0.30
2024-03-16T06:08:07.013Z,0.30
2024-03-16T06:09:09.889Z,0.30
2024-03-16T06:10:12.051Z,0.15
2024-03-16T06:11:13.893Z,0.10
2024-03-16T06:12:15.452Z,0.10
2024-03-16T06:13:17.293Z,0.30
2024-03-16T06:14:19.359Z,0.43
2024-03-16T06:15:21.012Z,0.30
2024-03-16T06:16:22.956Z,0.20
2024-03-16T06:17:25.350Z,0.30
2024-03-16T06:18:26.957Z,0.20
2024-03-16T06:19:28.766Z,0.05
2024-03-16T06:20:30.570Z,0.10
2024-03-16T06:21:32.419Z,0.25
2024-03-16T06:22:34.102Z,0.20
2024-03-16T06:23:35.719Z,0.10
2024-03-16T06:24:37.392Z,0.28
2024-03-16T06:25:48.178Z,0.35
2024-03-16T06:26:55.598Z,0.20
2024-03-16T06:28:06.794Z,0.25
2024-03-16T06:29:11.349Z,0.13
2024-03-16T06:30:14.352Z,0.03
2024-03-16T06:31:19.666Z,0.20
2024-03-16T06:32:21.675Z,0.15
2024-03-16T06:33:31.338Z,0.38
2024-03-16T06:34:34.644Z,0.20
2024-03-16T06:35:42.884Z,0.10
2024-03-16T06:36:44.594Z,0.10
2024-03-16T06:37:46.174Z,0.30
2024-03-16T06:38:47.861Z,0.30
2024-03-16T06:39:49.621Z,0.20
2024-03-16T06:40:51.712Z,0.28
2024-03-16T06:41:53.894Z,0.38
2024-03-16T06:42:55.582Z,0.20
2024-03-16T06:43:57.154Z,0.20
2024-03-16T06:44:58.717Z,0.10
2024-03-16T06:46:02.104Z,0.13
2024-03-16T06:47:03.981Z,0.17
2024-03-16T06:48:06.097Z,0.22
2024-03-16T06:49:08.433Z,0.50
2024-03-16T06:50:11.383Z,0.10
2024-03-16T06:51:13.008Z,0.32
2024-03-16T06:52:16.618Z,0.50
2024-03-16T06:53:18.287Z,0.20
2024-03-16T06:54:19.871Z,0.30
2024-03-16T06:55:21.584Z,0.20
2024-03-16T06:56:23.320Z,0.20
2024-03-16T06:57:24.979Z,0.20
2024-03-16T06:58:26.604Z,0.28
2024-03-16T06:59:28.144Z,0.20
2024-03-16T07:00:29.989Z,0.10
2024-03-16T07:01:31.875Z,0.20
2024-03-16T07:02:33.582Z,0.30
2024-03-16T07:03:35.176Z,0.30
2024-03-16T07:04:36.809Z,0.30
2024-03-16T07:05:38.705Z,0.20
2024-03-16T07:06:40.523Z,0.20
2024-03-16T07:07:42.178Z,0.38
2024-03-16T07:08:43.817Z,0.22
2024-03-16T07:09:45.450Z,0.20
2024-03-16T07:10:47.325Z,0.30
2024-03-16T07:11:49.229Z,0.15
2024-03-16T07:12:51.342Z,0.30
2024-03-16T07:13:55.027Z,0.10
2024-03-16T07:14:56.766Z,0.30
2024-03-16T07:15:58.535Z,0.28
2024-03-16T07:17:00.149Z,0.38
2024-03-16T07:18:02.591Z,0.25
2024-03-16T07:20:08.293Z,0.20
2024-03-16T07:21:09.951Z,0.20
2024-03-16T07:22:11.829Z,0.30
2024-03-16T07:23:13.635Z,0.15
2024-03-16T07:24:16.461Z,0.35
2024-03-16T07:25:18.305Z,0.30
2024-03-16T07:26:19.957Z,0.22
2024-03-16T07:27:21.505Z,0.30
2024-03-16T07:28:23.275Z,0.10
2024-03-16T07:29:25.195Z,0.30
2024-03-16T07:30:27.072Z,0.30
2024-03-16T07:31:28.696Z,0.20
2024-03-16T07:32:30.402Z,0.10
2024-03-16T07:33:32.158Z,0.43
2024-03-16T07:34:34.720Z,0.17
2024-03-16T07:35:36.715Z,0.20
2024-03-16T07:36:38.779Z,0.20
2024-03-16T07:37:41.101Z,0.10
2024-03-16T07:38:42.758Z,0.45
2024-03-16T07:39:44.467Z,0.15
2024-03-16T07:40:46.069Z,0.25
2024-03-16T07:41:47.681Z,0.30
2024-03-16T07:42:50.141Z,0.20
2024-03-16T07:44:53.482Z,0.20
2024-03-16T07:45:55.232Z,0.40
2024-03-16T07:46:56.901Z,0.40
2024-03-16T07:47:58.509Z,0.35
2024-03-16T07:49:06.647Z,0.30
2024-03-16T07:50:10.420Z,0.38
2024-03-16T07:51:14.400Z,0.17
2024-03-16T07:52:16.083Z,0.15
2024-03-16T07:53:17.912Z,0.20
2024-03-16T07:54:19.647Z,0.30
2024-03-16T07:55:21.368Z,0.30
2024-03-16T07:56:23.092Z,0.30
2024-03-16T07:57:25.530Z,0.20
2024-03-16T07:59:29.458Z,0.22
2024-03-16T08:00:31.166Z,0.13
2024-03-16T08:01:32.889Z,0.10
2024-03-16T08:02:35.457Z,0.22
2024-03-16T08:04:39.531Z,0.52
2024-03-16T08:05:41.132Z,0.43
2024-03-16T08:06:43.037Z,0.40
2024-03-16T08:07:45.623Z,0.10
2024-03-16T08:08:47.291Z,0.38
2024-03-16T08:09:48.932Z,0.32
2024-03-16T08:10:51.585Z,0.25
2024-03-16T08:11:53.544Z,0.20
2024-03-16T08:12:55.222Z,0.45
2024-03-16T08:13:56.823Z,0.45
2024-03-16T08:14:58.516Z,0.22
2024-03-16T08:16:00.552Z,0.40
2024-03-16T08:17:05.198Z,0.68
2024-03-16T08:18:06.918Z,0.32
2024-03-16T08:19:08.661Z,0.43
2024-03-16T08:20:15.529Z,0.65
2024-03-16T08:21:18.974Z,0.68
2024-03-16T08:22:20.750Z,0.40
2024-03-16T08:23:22.421Z,0.65
2024-03-16T08:24:24.214Z,0.43
2024-03-16T08:25:25.864Z,0.30
2024-03-16T08:26:29.125Z,0.22
2024-03-16T08:27:34.455Z,0.40
2024-03-16T08:28:38.171Z,0.60
2024-03-16T08:29:40.039Z,0.30
2024-03-16T08:30:41.761Z,0.32
2024-03-16T08:31:43.660Z,0.40
2024-03-16T08:32:45.328Z,0.57
2024-03-16T08:33:47.069Z,0.70
2024-03-16T08:34:48.805Z,0.60
2024-03-16T08:35:50.525Z,0.25
2024-03-16T08:36:52.344Z,0.40
2024-03-16T08:37:54.055Z,0.30
2024-03-16T08:38:55.749Z,0.60
2024-03-16T08:39:57.456Z,0.57
2024-03-16T08:40:59.123Z,0.80
2024-03-16T08:42:00.817Z,0.65
2024-03-16T08:43:02.632Z,0.55
2024-03-16T08:44:05.732Z,0.50
2024-03-16T08:45:08.678Z,0.50
2024-03-16T08:46:11.360Z,0.30
2024-03-16T08:47:13.022Z,0.40
2024-03-16T08:48:14.674Z,0.88
2024-03-16T08:49:16.585Z,0.50
2024-03-16T08:50:18.424Z,0.60
2024-03-16T08:51:21.132Z,0.38
2024-03-16T08:52:24.314Z,0.43
2024-03-16T08:53:27.478Z,0.70
2024-03-16T08:54:31.130Z,0.40
2024-03-16T08:55:32.876Z,0.77
2024-03-16T08:56:34.561Z,0.52
2024-03-16T08:57:36.717Z,1.00
2024-03-16T08:58:38.534Z,0.60
2024-03-16T08:59:40.237Z,0.73
2024-03-16T09:00:41.915Z,0.93
2024-03-16T09:01:44.224Z,0.70
2024-03-16T09:02:46.093Z,0.68
2024-03-16T09:03:47.663Z,0.73
2024-03-16T09:04:52.262Z,0.63
2024-03-16T09:05:54.476Z,0.50
2024-03-16T09:06:56.129Z,0.70
2024-03-16T09:07:57.753Z,1.40
2024-03-16T09:09:00.656Z,0.70
2024-03-16T09:10:02.674Z,0.60
2024-03-16T09:11:05.096Z,0.80
2024-03-16T09:13:08.906Z,1.55
2024-03-16T09:14:10.581Z,1.60
2024-03-16T09:15:12.520Z,1.60
2024-03-16T09:16:14.363Z,0.93
2024-03-16T09:17:16.008Z,1.30
2024-03-16T09:18:17.905Z,0.90
2024-03-16T09:19:20.645Z,0.70
2024-03-16T09:20:22.402Z,0.88
2024-03-16T09:21:24.026Z,0.80
2024-03-16T09:22:26.411Z,0.47
2024-03-16T09:24:29.614Z,0.32
2024-03-16T09:25:31.583Z,0.50
2024-03-16T09:26:33.232Z,0.45
2024-03-16T09:27:35.104Z,0.43
2024-03-16T09:28:36.885Z,0.45
2024-03-16T09:29:42.056Z,0.40
2024-03-16T09:30:46.297Z,0.20
2024-03-16T09:31:48.129Z,0.60
2024-03-16T09:32:49.931Z,0.40
2024-03-16T09:33:52.180Z,0.60
2024-03-16T09:34:53.841Z,0.17
2024-03-16T09:35:55.468Z,0.20
2024-03-16T09:36:57.200Z,0.40
2024-03-16T09:37:58.877Z,0.65
2024-03-16T09:39:00.507Z,0.50
2024-03-16T09:40:02.238Z,0.60
2024-03-16T09:41:05.291Z,0.50
2024-03-16T09:42:07.874Z,0.47
